Aérodrome :
LOGIN :

S'inscrire | Disclaimer

   EN    FR    IT 

 










Légende :    VFR   VFR Marginal   IFR   IFR Intensif   IFR Très Intensif
Visi : 
Plafond : 
>= 8 km
>= 3000ft
5 à 8 km
1000 à 3000 ft
1500m à 5 km
500 à 1000 ft
800 à 1500m
200 à 500 ft
< 800m
< 200 ft
Symboles :   Orages  Brouillard  Fortes neiges  Fortes précipitations  Vent > 20 kt
SIGMETs :   Divers  Orages  Givrage  Turbulence  Onde Orograph.  Cendres Volcan.







- Altitude de l'aérodrome : 39 ft
- Code IATA : TRS


LIPQ - Friuli Venezia Giulia Apt. Trieste

DERNIER METAR :
  • 140620Z 36003KT 330V030 9999 SCT030 SCT060 21/19 Q1011

METARs EXPIRÉS :
  • 140550Z VRB02KT 9999 SCT030 BKN060 21/20 Q1011
  • 140520Z VRB01KT 9999 SCT030 BKN060 21/20 Q1011
  • 140450Z 04003KT 010V070 9000 SCT030 BKN060 20/20 Q1010
  • 140420Z VRB02KT 8000 -RA SCT020 BKN050 20/20 Q1010
  • 140350Z AUTO 02003KT 360V060 9999 -RA BKN046/// BKN065/// OVC098/// 20/20 Q1010

TAF TAF LIPQ
Valide du 14 à 06h jusqu'au 15 à 06h UTC


140500Z 1406/1506 VRB05KT 9999 SCT030
TEMPO 1406/1412 TSRA
BECMG 1410/1412 06012KT
Pas de NOTAMs connus pour ce terrain.



MET'MAP, la Météo Aéronautique d'un coup d'oeil ! - Copyright ORBIFLY Décembre 2007 - Disclaimer

ORBIFLY MET'MAP TEAM :

Programmation & Développement : Alexandra Zaïnal
Conception & Développement : Baudouin d'Aumeries
Co-Programmation & Développement : Marc-Olivier Méhu
Soutien technique & logistique : Manuel Goepfert

Contact : metmap@orbifly.com




SOURCES & CREDITS :

   NOAA